createdAt,value
2022-10-26T00:01:23.411Z,56.75
2022-10-26T00:03:51.922Z,56.76
2022-10-26T00:06:25.029Z,56.74
2022-10-26T00:08:53.310Z,56.75
2022-10-26T00:11:21.693Z,56.48
2022-10-26T00:13:50.546Z,56.43
2022-10-26T00:16:27.845Z,56.20
2022-10-26T00:18:56.841Z,56.41
2022-10-26T00:21:28.286Z,56.46
2022-10-26T00:23:57.324Z,56.32
2022-10-26T00:26:25.655Z,56.53
2022-10-26T00:28:56.104Z,56.33
2022-10-26T00:31:25.514Z,56.48
2022-10-26T00:33:55.780Z,56.41
2022-10-26T00:36:26.200Z,56.19
2022-10-26T00:38:56.583Z,56.39
2022-10-26T00:41:29.035Z,56.55
2022-10-26T00:43:57.763Z,56.69
2022-10-26T00:46:33.855Z,56.50
2022-10-26T00:49:13.575Z,56.41
2022-10-26T00:51:53.441Z,56.71
2022-10-26T00:54:24.014Z,56.86
2022-10-26T00:56:54.882Z,56.99
2022-10-26T00:59:23.833Z,56.75
2022-10-26T01:01:52.869Z,57.00
2022-10-26T01:04:21.217Z,56.89
2022-10-26T01:06:49.975Z,56.89
2022-10-26T01:09:21.984Z,56.87
2022-10-26T01:11:50.678Z,56.73
2022-10-26T01:14:20.830Z,56.79
2022-10-26T01:17:07.918Z,56.87
2022-10-26T01:20:18.495Z,56.89
2022-10-26T01:23:14.969Z,56.73
2022-10-26T01:26:15.382Z,56.63
2022-10-26T01:29:06.856Z,56.86
2022-10-26T01:31:42.616Z,56.87
2022-10-26T01:34:20.983Z,56.72
2022-10-26T01:36:57.057Z,56.54
2022-10-26T01:39:43.178Z,56.73
2022-10-26T01:42:16.349Z,56.82
2022-10-26T01:44:56.286Z,56.51
2022-10-26T01:47:24.929Z,56.81
2022-10-26T01:49:56.624Z,56.64
2022-10-26T01:52:25.170Z,56.63
2022-10-26T01:55:24.076Z,56.55
2022-10-26T01:57:54.357Z,56.67
2022-10-26T02:00:22.666Z,56.67
2022-10-26T02:03:21.502Z,56.40
2022-10-26T02:06:06.992Z,56.40
2022-10-26T02:09:01.249Z,56.64
2022-10-26T02:11:49.461Z,56.67
2022-10-26T02:14:40.136Z,56.74
2022-10-26T02:17:18.129Z,56.74
2022-10-26T02:19:59.712Z,56.82
2022-10-26T02:22:48.901Z,57.28
2022-10-26T02:25:23.576Z,57.20
2022-10-26T02:27:58.152Z,57.13
2022-10-26T02:30:26.683Z,57.02
2022-10-26T02:32:57.691Z,56.71
2022-10-26T02:35:34.605Z,56.87
2022-10-26T02:38:08.804Z,56.80
2022-10-26T02:40:56.877Z,56.95
2022-10-26T02:43:53.315Z,56.99
2022-10-26T02:46:44.796Z,57.11
2022-10-26T02:49:13.313Z,57.17
2022-10-26T02:52:01.274Z,56.91
2022-10-26T02:54:45.990Z,57.09
2022-10-26T02:57:29.544Z,57.11
2022-10-26T02:59:59.904Z,57.08
2022-10-26T03:02:30.704Z,57.27
2022-10-26T03:05:21.472Z,57.00
2022-10-26T03:07:49.447Z,57.16
2022-10-26T03:10:17.842Z,57.18
2022-10-26T03:12:46.663Z,57.43
2022-10-26T03:15:16.009Z,57.44
2022-10-26T03:17:44.345Z,57.41
2022-10-26T03:20:12.500Z,57.31
2022-10-26T03:22:40.574Z,57.25
2022-10-26T03:27:42.759Z,57.40
2022-10-26T03:30:12.121Z,57.45
2022-10-26T03:32:39.913Z,57.42
2022-10-26T03:35:08.380Z,57.33
2022-10-26T03:37:37.434Z,57.32
2022-10-26T03:40:05.691Z,57.40
2022-10-26T03:42:37.690Z,57.34
2022-10-26T03:45:07.726Z,57.61
2022-10-26T03:47:42.828Z,57.51
2022-10-26T03:50:13.137Z,57.56
2022-10-26T03:52:42.068Z,57.84
2022-10-26T03:55:11.238Z,57.65
2022-10-26T03:57:46.189Z,57.69
2022-10-26T04:00:18.091Z,57.69
2022-10-26T04:02:54.206Z,57.67
2022-10-26T04:05:22.863Z,57.77
2022-10-26T04:08:04.715Z,57.50
2022-10-26T04:10:32.588Z,57.69
2022-10-26T04:13:01.418Z,57.51
2022-10-26T04:15:29.793Z,57.56
2022-10-26T04:18:02.288Z,57.75
2022-10-26T04:20:33.353Z,57.76
2022-10-26T04:23:07.161Z,57.77
2022-10-26T04:25:35.267Z,58.01
2022-10-26T04:28:06.009Z,57.87
2022-10-26T04:30:35.171Z,57.79
2022-10-26T04:33:04.586Z,57.71
2022-10-26T04:35:33.443Z,57.59
2022-10-26T04:38:06.150Z,57.63
2022-10-26T04:40:35.210Z,57.56
2022-10-26T04:43:03.247Z,57.64
2022-10-26T04:45:31.391Z,57.85
2022-10-26T04:48:14.204Z,57.66
2022-10-26T04:50:42.311Z,57.99
2022-10-26T04:53:10.860Z,58.02
2022-10-26T04:55:38.697Z,57.76
2022-10-26T04:58:08.323Z,57.86
2022-10-26T05:00:36.781Z,58.03
2022-10-26T05:03:07.223Z,57.68
2022-10-26T05:05:37.161Z,57.82
2022-10-26T05:08:06.640Z,58.10
2022-10-26T05:10:34.550Z,58.03
2022-10-26T05:13:02.985Z,58.12
2022-10-26T05:15:31.226Z,58.23
2022-10-26T05:18:03.138Z,58.20
2022-10-26T05:20:34.222Z,58.18
2022-10-26T05:23:05.994Z,58.26
2022-10-26T05:25:37.827Z,58.30
2022-10-26T05:28:09.823Z,58.27
2022-10-26T05:30:39.993Z,58.33
2022-10-26T05:33:11.162Z,58.39
2022-10-26T05:35:39.894Z,58.52
2022-10-26T05:38:33.805Z,58.44
2022-10-26T05:41:01.792Z,58.58
2022-10-26T05:43:30.313Z,58.48
2022-10-26T05:45:59.077Z,58.62
2022-10-26T05:48:27.125Z,58.84
2022-10-26T05:50:55.074Z,58.50
2022-10-26T05:53:22.769Z,58.57
2022-10-26T05:55:51.026Z,58.72
2022-10-26T05:58:19.351Z,58.81
2022-10-26T06:01:22.432Z,58.71
2022-10-26T06:04:02.732Z,58.73
2022-10-26T06:06:48.011Z,58.88
2022-10-26T06:09:16.683Z,58.87
2022-10-26T06:14:18.173Z,58.90
2022-10-26T06:17:34.648Z,58.69
2022-10-26T06:20:22.157Z,58.82
2022-10-26T06:23:19.987Z,58.82
2022-10-26T06:26:18.670Z,58.92
2022-10-26T06:29:19.322Z,58.81
2022-10-26T06:31:48.683Z,58.92
2022-10-26T06:34:28.814Z,58.89
2022-10-26T06:37:00.812Z,59.00
2022-10-26T06:39:35.216Z,59.00
2022-10-26T06:42:04.695Z,59.25
2022-10-26T06:44:33.881Z,59.29
2022-10-26T06:47:14.682Z,59.33
2022-10-26T06:50:16.929Z,59.34
2022-10-26T06:53:00.282Z,59.25
2022-10-26T06:55:45.617Z,59.32
2022-10-26T06:58:22.860Z,59.37
2022-10-26T07:00:55.345Z,59.29
2022-10-26T07:03:23.619Z,59.39
2022-10-26T07:05:52.528Z,59.36
2022-10-26T07:08:21.062Z,59.58
2022-10-26T07:10:49.238Z,59.42
2022-10-26T07:13:18.363Z,59.41
2022-10-26T07:15:46.643Z,59.56
2022-10-26T07:18:14.994Z,59.39
2022-10-26T07:20:43.212Z,59.49
2022-10-26T07:23:11.538Z,59.49
2022-10-26T07:25:40.651Z,59.58
2022-10-26T07:28:10.872Z,59.50
2022-10-26T07:30:40.358Z,59.55
2022-10-26T07:33:14.575Z,59.48
2022-10-26T07:35:42.460Z,59.48
2022-10-26T07:38:12.422Z,59.33
2022-10-26T07:40:40.527Z,59.72
2022-10-26T07:43:08.776Z,59.58
2022-10-26T07:45:36.833Z,59.51
2022-10-26T07:48:05.044Z,59.46
2022-10-26T07:50:33.236Z,59.59
2022-10-26T07:53:01.199Z,59.36
2022-10-26T07:55:29.097Z,59.45
2022-10-26T07:57:57.728Z,59.46
2022-10-26T08:00:26.095Z,59.37
2022-10-26T08:02:54.685Z,59.44
2022-10-26T08:05:23.357Z,59.56
2022-10-26T08:07:51.733Z,59.50
2022-10-26T08:10:20.105Z,59.63
2022-10-26T08:12:48.185Z,59.67
2022-10-26T08:15:16.409Z,59.74
2022-10-26T08:17:44.583Z,59.95
2022-10-26T08:20:12.807Z,59.69
2022-10-26T08:22:40.965Z,59.55
2022-10-26T08:25:09.601Z,59.60
2022-10-26T08:27:37.644Z,59.58
2022-10-26T08:30:09.558Z,59.49
2022-10-26T08:32:37.633Z,59.61
2022-10-26T08:35:06.316Z,59.42
2022-10-26T08:37:34.348Z,59.33
2022-10-26T08:40:04.636Z,59.18
2022-10-26T08:42:40.933Z,59.26
2022-10-26T08:45:37.140Z,58.99
2022-10-26T08:48:24.491Z,58.85
2022-10-26T08:50:56.956Z,59.14
2022-10-26T08:54:01.942Z,58.97
2022-10-26T08:56:40.703Z,59.03
2022-10-26T08:59:46.700Z,58.97
2022-10-26T09:02:18.001Z,59.13
2022-10-26T09:04:46.307Z,59.03
2022-10-26T09:07:29.905Z,58.79
2022-10-26T09:10:20.113Z,58.88
2022-10-26T09:13:18.231Z,58.99
2022-10-26T09:15:55.395Z,59.13
2022-10-26T09:19:08.958Z,59.19
2022-10-26T09:22:13.871Z,59.13
2022-10-26T09:24:54.973Z,59.08
2022-10-26T09:27:42.597Z,59.23
2022-10-26T09:30:19.127Z,59.06
2022-10-26T09:32:52.864Z,59.29
2022-10-26T09:38:17.166Z,58.90
2022-10-26T09:41:06.585Z,58.93
2022-10-26T09:43:43.762Z,59.18
2022-10-26T09:46:23.069Z,58.86
2022-10-26T09:49:04.777Z,58.54
2022-10-26T09:51:36.960Z,58.78
2022-10-26T09:54:21.763Z,58.50
2022-10-26T09:56:56.954Z,58.58
2022-10-26T09:59:26.739Z,58.69
2022-10-26T10:01:56.496Z,58.36
2022-10-26T10:04:24.983Z,58.41
2022-10-26T10:19:22.111Z,57.82
2022-10-26T10:21:55.754Z,58.05
2022-10-26T10:24:27.136Z,57.53
2022-10-26T10:27:15.738Z,57.23
2022-10-26T10:29:44.557Z,57.34
2022-10-26T10:32:22.747Z,57.14
2022-10-26T10:34:53.368Z,57.30
2022-10-26T10:37:32.362Z,56.48
2022-10-26T10:40:07.070Z,56.61
2022-10-26T10:42:43.154Z,56.02
2022-10-26T10:45:30.776Z,55.43
2022-10-26T10:48:18.876Z,55.25
2022-10-26T10:51:12.739Z,55.04
2022-10-26T10:53:51.162Z,55.13
2022-10-26T10:57:03.287Z,54.66
2022-10-26T10:59:55.221Z,55.49
2022-10-26T11:03:19.193Z,54.86
2022-10-26T11:06:00.210Z,54.84
2022-10-26T11:08:42.914Z,54.08
2022-10-26T11:11:23.819Z,53.99
2022-10-26T11:14:13.889Z,53.63
2022-10-26T11:16:51.255Z,53.26
2022-10-26T11:20:04.965Z,52.80
2022-10-26T11:22:58.809Z,53.27
2022-10-26T11:25:53.078Z,53.31
2022-10-26T11:29:03.194Z,52.97
2022-10-26T11:31:44.197Z,52.70
2022-10-26T11:34:32.109Z,52.66
2022-10-26T11:37:22.756Z,52.61
2022-10-26T11:40:25.170Z,52.92
2022-10-26T11:43:14.438Z,52.94
2022-10-26T11:45:51.402Z,52.66
2022-10-26T11:48:28.717Z,52.27
2022-10-26T11:50:59.753Z,52.26
2022-10-26T11:53:44.083Z,52.02
2022-10-26T11:56:34.247Z,51.44
2022-10-26T12:01:36.397Z,51.88
2022-10-26T12:04:04.679Z,51.45
2022-10-26T12:06:35.127Z,51.33
2022-10-26T12:09:16.653Z,51.25
2022-10-26T12:12:16.843Z,51.14
2022-10-26T12:15:10.373Z,51.23
2022-10-26T12:17:56.599Z,51.19
2022-10-26T12:20:52.976Z,50.69
2022-10-26T12:23:40.580Z,50.92
2022-10-26T12:26:25.262Z,51.12
2022-10-26T12:29:02.970Z,50.81
2022-10-26T12:31:39.670Z,50.41
2022-10-26T12:34:23.616Z,50.49
2022-10-26T12:36:55.959Z,50.59
2022-10-26T12:39:40.743Z,50.32
2022-10-26T12:42:08.929Z,50.19
2022-10-26T12:44:41.563Z,49.99
2022-10-26T12:47:30.861Z,50.16
2022-10-26T12:50:08.593Z,49.73
2022-10-26T12:52:54.215Z,49.46
2022-10-26T12:55:48.254Z,49.58
2022-10-26T12:58:26.250Z,49.59
2022-10-26T13:01:00.260Z,49.87
2022-10-26T13:03:35.344Z,49.46
2022-10-26T13:06:11.054Z,49.44
2022-10-26T13:09:23.875Z,49.19
2022-10-26T13:11:57.066Z,49.05
2022-10-26T13:14:35.731Z,48.55
2022-10-26T13:17:22.866Z,48.71
2022-10-26T13:20:05.799Z,48.98
2022-10-26T13:22:44.551Z,48.79
2022-10-26T13:25:29.531Z,48.42
2022-10-26T13:28:04.374Z,48.48
2022-10-26T13:30:43.289Z,48.78
2022-10-26T13:33:22.632Z,48.43
2022-10-26T13:35:56.265Z,48.79
2022-10-26T13:38:31.101Z,48.56
2022-10-26T13:41:13.505Z,48.69
2022-10-26T13:43:44.170Z,48.75
2022-10-26T13:46:27.011Z,48.74
2022-10-26T13:49:22.651Z,48.79
2022-10-26T13:51:53.548Z,48.75
2022-10-26T13:54:44.874Z,48.76
2022-10-26T13:57:43.682Z,48.90
2022-10-26T14:00:22.452Z,49.20
2022-10-26T14:02:50.763Z,48.90
2022-10-26T14:05:20.725Z,49.14
2022-10-26T14:07:58.697Z,48.67
2022-10-26T14:10:32.995Z,48.60
2022-10-26T14:13:01.687Z,48.51
2022-10-26T14:15:32.788Z,48.58
2022-10-26T14:18:04.104Z,48.38
2022-10-26T14:20:33.419Z,48.38
2022-10-26T14:23:01.780Z,48.44
2022-10-26T14:25:42.057Z,48.42
2022-10-26T14:28:32.203Z,48.32
2022-10-26T14:31:38.588Z,48.50
2022-10-26T14:34:13.034Z,48.45
2022-10-26T14:36:56.367Z,48.32
2022-10-26T14:39:49.289Z,48.67
2022-10-26T14:42:32.324Z,48.59
2022-10-26T14:45:02.029Z,48.59
2022-10-26T14:47:33.685Z,48.21
2022-10-26T14:50:02.841Z,48.18
2022-10-26T14:52:36.038Z,48.27
2022-10-26T14:55:16.996Z,48.15
2022-10-26T14:57:48.756Z,48.08
2022-10-26T15:00:26.317Z,48.27
2022-10-26T15:02:58.430Z,48.41
2022-10-26T15:05:35.793Z,48.19
2022-10-26T15:08:33.775Z,48.11
2022-10-26T15:11:15.248Z,48.14
2022-10-26T15:13:44.557Z,48.41
2022-10-26T15:16:25.859Z,48.15
2022-10-26T15:21:47.811Z,48.14
2022-10-26T15:24:38.777Z,48.15
2022-10-26T15:27:16.311Z,49.07
2022-10-26T15:29:48.873Z,48.67
2022-10-26T15:32:21.850Z,48.54
2022-10-26T15:35:15.751Z,48.57
2022-10-26T15:37:44.556Z,48.74
2022-10-26T15:40:13.968Z,48.43
2022-10-26T15:42:45.318Z,48.50
2022-10-26T15:45:30.060Z,49.03
2022-10-26T15:48:18.457Z,49.09
2022-10-26T15:50:47.597Z,49.22
2022-10-26T15:53:23.240Z,48.85
2022-10-26T15:55:54.840Z,49.04
2022-10-26T15:58:23.724Z,48.80
2022-10-26T16:00:53.486Z,49.15
2022-10-26T16:03:28.060Z,49.11
2022-10-26T16:06:01.037Z,49.02
2022-10-26T16:08:31.923Z,49.10
2022-10-26T16:11:00.712Z,49.06
2022-10-26T16:13:31.436Z,49.05
2022-10-26T16:15:59.833Z,49.48
2022-10-26T16:18:28.858Z,49.29
2022-10-26T16:20:57.152Z,49.26
2022-10-26T16:23:25.775Z,49.60
2022-10-26T16:25:54.303Z,49.39
2022-10-26T16:28:23.946Z,49.82
2022-10-26T16:31:03.584Z,49.51
2022-10-26T16:33:33.430Z,49.94
2022-10-26T16:36:04.036Z,49.89
2022-10-26T16:38:33.899Z,50.23
2022-10-26T16:41:07.396Z,50.14
2022-10-26T16:43:38.619Z,50.22
2022-10-26T16:46:12.793Z,50.35
2022-10-26T16:48:43.374Z,50.23
2022-10-26T16:51:20.632Z,50.42
2022-10-26T16:53:55.637Z,50.56
2022-10-26T16:56:29.332Z,50.60
2022-10-26T16:58:58.667Z,50.60
2022-10-26T17:01:28.249Z,50.88
2022-10-26T17:03:57.482Z,50.92
2022-10-26T17:06:26.551Z,51.28
2022-10-26T17:08:55.345Z,51.12
2022-10-26T17:11:24.541Z,51.26
2022-10-26T17:14:00.092Z,51.39
2022-10-26T17:16:29.314Z,51.42
2022-10-26T17:18:57.991Z,51.58
2022-10-26T17:21:34.314Z,51.51
2022-10-26T17:24:03.515Z,51.73
2022-10-26T17:26:33.085Z,51.60
2022-10-26T17:29:01.457Z,51.80
2022-10-26T17:31:30.503Z,51.88
2022-10-26T17:33:59.692Z,52.03
2022-10-26T17:36:28.532Z,52.00
2022-10-26T17:38:57.814Z,52.10
2022-10-26T17:41:29.115Z,52.10
2022-10-26T17:43:58.300Z,52.24
2022-10-26T17:46:28.430Z,52.29
2022-10-26T17:48:59.905Z,52.53
2022-10-26T17:51:29.527Z,52.53
2022-10-26T17:54:02.939Z,52.63
2022-10-26T17:56:35.253Z,52.72
2022-10-26T17:59:11.027Z,52.62
2022-10-26T18:01:40.900Z,52.77
2022-10-26T18:04:09.546Z,52.80
2022-10-26T18:06:38.745Z,52.81
2022-10-26T18:09:07.174Z,53.06
2022-10-26T18:11:37.805Z,53.12
2022-10-26T18:14:05.949Z,53.00
2022-10-26T18:16:34.421Z,53.07
2022-10-26T18:19:08.221Z,53.01
2022-10-26T18:21:37.822Z,53.21
2022-10-26T18:24:08.577Z,53.42
2022-10-26T18:26:38.245Z,53.52
2022-10-26T18:29:07.468Z,53.48
2022-10-26T18:31:37.348Z,53.40
2022-10-26T18:34:07.672Z,53.64
2022-10-26T18:39:08.440Z,53.51
2022-10-26T18:41:38.501Z,53.65
2022-10-26T18:44:06.840Z,53.57
2022-10-26T18:46:40.834Z,53.67
2022-10-26T18:49:11.061Z,53.88
2022-10-26T18:51:40.297Z,54.03
2022-10-26T18:54:13.215Z,53.94
2022-10-26T18:56:42.831Z,54.04
2022-10-26T18:59:13.759Z,54.04
2022-10-26T19:01:42.613Z,53.99
2022-10-26T19:04:12.780Z,54.22
2022-10-26T19:06:47.960Z,54.48
2022-10-26T19:09:18.941Z,54.33
2022-10-26T19:11:48.403Z,54.66
2022-10-26T19:14:17.394Z,54.77
2022-10-26T19:16:48.076Z,54.72
2022-10-26T19:19:18.710Z,54.72
2022-10-26T19:21:50.750Z,54.77
2022-10-26T19:24:23.067Z,54.63
2022-10-26T19:26:54.521Z,54.38
2022-10-26T19:29:23.268Z,54.52
2022-10-26T19:31:53.654Z,54.40
2022-10-26T19:34:22.174Z,54.39
2022-10-26T19:36:50.875Z,54.46
2022-10-26T19:39:21.183Z,54.68
2022-10-26T19:41:49.968Z,54.81
2022-10-26T19:44:24.502Z,54.88
2022-10-26T19:46:53.718Z,55.01
2022-10-26T19:49:23.076Z,54.64
2022-10-26T19:51:51.619Z,54.96
2022-10-26T19:54:20.177Z,54.58
2022-10-26T19:56:49.437Z,54.90
2022-10-26T19:59:19.630Z,54.84
2022-10-26T20:01:48.216Z,54.89
2022-10-26T20:04:18.541Z,54.68
2022-10-26T20:06:47.356Z,54.82
2022-10-26T20:11:46.632Z,54.69
2022-10-26T20:14:15.663Z,54.93
2022-10-26T20:16:44.471Z,54.82
2022-10-26T20:19:12.960Z,54.66
2022-10-26T20:21:41.719Z,54.76
2022-10-26T20:24:11.557Z,55.05
2022-10-26T20:26:40.324Z,54.79
2022-10-26T20:29:10.051Z,54.94
2022-10-26T20:31:40.397Z,54.90
2022-10-26T20:34:09.821Z,55.17
2022-10-26T20:36:38.162Z,55.21
2022-10-26T20:39:09.457Z,55.05
2022-10-26T20:41:46.402Z,55.26
2022-10-26T20:44:24.892Z,55.28
2022-10-26T20:46:53.689Z,55.46
2022-10-26T20:49:22.614Z,55.49
2022-10-26T20:52:25.748Z,55.50
2022-10-26T20:55:11.412Z,55.55
2022-10-26T20:57:48.373Z,55.49
2022-10-26T21:00:18.092Z,55.51
2022-10-26T21:02:47.240Z,55.56
2022-10-26T21:05:18.368Z,55.42
2022-10-26T21:07:46.339Z,55.44
2022-10-26T21:10:16.515Z,55.35
2022-10-26T21:12:45.637Z,55.51
2022-10-26T21:15:15.529Z,55.48
2022-10-26T21:17:43.991Z,55.56
2022-10-26T21:20:12.165Z,55.54
2022-10-26T21:22:40.399Z,55.75
2022-10-26T21:25:09.079Z,55.49
2022-10-26T21:27:37.460Z,55.43
2022-10-26T21:30:06.525Z,55.72
2022-10-26T21:32:36.808Z,56.24
2022-10-26T21:35:05.573Z,56.24
2022-10-26T21:37:33.569Z,56.44
2022-10-26T21:40:01.625Z,56.36
2022-10-26T21:42:29.398Z,56.11
2022-10-26T21:44:57.288Z,56.03
2022-10-26T21:47:26.505Z,56.01
2022-10-26T21:49:54.326Z,56.15
2022-10-26T21:52:22.474Z,55.75
2022-10-26T21:54:50.531Z,56.09
2022-10-26T21:57:19.093Z,55.72
2022-10-26T21:59:46.925Z,55.66
2022-10-26T22:02:15.139Z,55.77
2022-10-26T22:04:45.187Z,55.81
2022-10-26T22:07:13.219Z,55.74
2022-10-26T22:09:55.131Z,55.74
2022-10-26T22:12:29.186Z,55.80
2022-10-26T22:14:57.368Z,56.02
2022-10-26T22:17:26.164Z,56.02
2022-10-26T22:19:54.482Z,55.76
2022-10-26T22:22:22.259Z,55.88
2022-10-26T22:24:52.652Z,55.95
2022-10-26T22:27:20.705Z,55.84
2022-10-26T22:29:49.159Z,55.87
2022-10-26T22:32:17.092Z,55.89
2022-10-26T22:34:45.345Z,55.94
2022-10-26T22:37:14.027Z,55.75
2022-10-26T22:39:42.025Z,55.75
2022-10-26T22:42:12.117Z,55.57
2022-10-26T22:44:40.408Z,55.70
2022-10-26T22:47:08.757Z,55.65
2022-10-26T22:49:36.531Z,55.63
2022-10-26T22:52:05.751Z,55.71
2022-10-26T22:54:33.508Z,55.88
2022-10-26T22:57:01.562Z,55.79
2022-10-26T22:59:29.551Z,55.90
2022-10-26T23:01:57.697Z,56.09
2022-10-26T23:04:25.725Z,56.02
2022-10-26T23:06:54.183Z,56.08
2022-10-26T23:09:22.164Z,56.08
2022-10-26T23:11:51.897Z,56.01
2022-10-26T23:14:20.007Z,55.89
2022-10-26T23:16:48.026Z,56.00
2022-10-26T23:19:16.836Z,56.06
2022-10-26T23:21:44.517Z,55.94
2022-10-26T23:24:12.347Z,56.06
2022-10-26T23:26:41.596Z,55.97
2022-10-26T23:29:09.669Z,56.07
2022-10-26T23:31:37.686Z,56.03
2022-10-26T23:34:05.867Z,56.12
2022-10-26T23:36:34.080Z,56.11
2022-10-26T23:39:01.861Z,56.23
2022-10-26T23:41:29.733Z,56.09
2022-10-26T23:43:57.647Z,56.14
2022-10-26T23:48:54.673Z,56.16
2022-10-26T23:51:22.753Z,56.32
2022-10-26T23:53:50.514Z,56.11
2022-10-26T23:56:18.282Z,56.21
2022-10-26T23:58:50.483Z,56.22
